Time;durP1;ratioP1;P1;durP2;ratioP2;P2;SDS_P1;SDS_P2;PMS_P1;PMS_P2;Temp;Humidity;BMP_temperature;BMP_pressure;BME280_temperature;BME280_humidity;BME280_pressure;Samples;Min_cycle;Max_cycle;Signal;HPM_P1;HPM_P2
2023/06/05 00:00:00;;;;;;;9.83;4.90;;;12.70;99.90;;;;;;5061680;28;20553;-83
2023/06/05 00:02:28;;;;;;;6.87;4.43;;;12.70;99.90;;;;;;5047523;28;20219;-82
2023/06/05 00:04:55;;;;;;;11.73;6.30;;;12.70;99.90;;;;;;5061420;28;20208;-83
2023/06/05 00:07:23;;;;;;;10.13;5.40;;;12.60;99.90;;;;;;5062558;28;20610;-83
2023/06/05 00:09:50;;;;;;;10.77;5.87;;;12.60;99.90;;;;;;5050661;28;20203;-83
2023/06/05 00:12:18;;;;;;;11.20;5.47;;;12.50;99.90;;;;;;5061382;28;20324;-85
2023/06/05 00:14:46;;;;;;;8.20;5.40;;;12.50;99.90;;;;;;5048655;28;20200;-87
2023/06/05 00:17:13;;;;;;;10.37;5.90;;;12.50;99.90;;;;;;5067465;28;20215;-82
2023/06/05 00:19:42;;;;;;;9.90;5.70;;;12.50;99.90;;;;;;5071635;28;20223;-84
2023/06/05 00:22:09;;;;;;;13.37;6.27;;;12.40;99.90;;;;;;5070603;28;20206;-82
2023/06/05 00:24:44;;;;;;;9.87;5.20;;;12.40;99.90;;;;;;5066109;28;20276;-84
2023/06/05 00:27:12;;;;;;;11.93;6.33;;;12.40;99.90;;;;;;5062434;28;20226;-83
2023/06/05 00:29:43;;;;;;;12.07;5.53;;;12.50;99.90;;;;;;5069644;28;20299;-82
2023/06/05 00:32:10;;;;;;;9.93;5.83;;;12.40;99.90;;;;;;5062967;28;20232;-83
2023/06/05 00:34:37;;;;;;;10.50;5.87;;;12.30;99.90;;;;;;5045725;28;20225;-85
2023/06/05 00:37:04;;;;;;;10.27;5.77;;;12.30;99.90;;;;;;5065029;28;20214;-83
2023/06/05 00:39:31;;;;;;;7.60;5.00;;;12.30;99.90;;;;;;5068298;28;21075;-83
2023/06/05 00:42:01;;;;;;;9.23;5.63;;;12.30;99.90;;;;;;5050597;28;20698;-83
2023/06/05 00:44:28;;;;;;;11.47;6.77;;;12.20;99.90;;;;;;5067982;28;20859;-83
2023/06/05 00:46:55;;;;;;;10.27;5.60;;;12.20;99.90;;;;;;5044019;28;20671;-85
2023/06/05 00:49:23;;;;;;;14.00;5.87;;;12.10;99.90;;;;;;5062766;28;20715;-84
2023/06/05 00:51:50;;;;;;;12.40;5.60;;;12.10;99.90;;;;;;5066714;28;20297;-84
2023/06/05 00:54:22;;;;;;;8.90;5.37;;;12.00;99.90;;;;;;5068377;28;20198;-83
2023/06/05 00:56:52;;;;;;;10.10;5.97;;;12.00;99.90;;;;;;5063780;28;20201;-83
2023/06/05 00:59:20;;;;;;;13.43;5.93;;;12.00;99.90;;;;;;5066301;28;20245;-84
2023/06/05 01:01:48;;;;;;;10.87;5.73;;;11.90;99.90;;;;;;5068164;28;20282;-85
2023/06/05 01:04:16;;;;;;;10.40;5.53;;;11.90;99.90;;;;;;5069239;28;20668;-82
2023/06/05 01:06:43;;;;;;;11.97;5.93;;;11.90;99.90;;;;;;5052310;28;20225;-85
2023/06/05 01:09:13;;;;;;;11.87;5.70;;;11.90;99.90;;;;;;5069433;28;20237;-83
2023/06/05 01:12:05;;;;;;;13.87;6.40;;;11.90;99.90;;;;;;5067891;28;20240;-82
2023/06/05 01:14:36;;;;;;;12.77;6.23;;;11.80;99.90;;;;;;5043916;28;20652;-83
2023/06/05 01:17:08;;;;;;;10.43;6.73;;;11.80;99.90;;;;;;5050293;28;20232;-84
2023/06/05 01:19:36;;;;;;;9.80;6.00;;;11.80;99.90;;;;;;5049586;28;20316;-84
2023/06/05 01:22:03;;;;;;;13.23;6.00;;;11.80;99.90;;;;;;5048750;28;20202;-83
2023/06/05 01:24:32;;;;;;;13.10;6.50;;;11.70;99.90;;;;;;5065209;28;20204;-84
2023/06/05 01:27:10;;;;;;;14.00;6.70;;;11.70;99.90;;;;;;5059182;28;20347;-84
2023/06/05 01:30:19;;;;;;;10.67;6.10;;;11.60;99.90;;;;;;5041624;28;20200;-84
2023/06/05 01:33:06;;;;;;;12.90;6.30;;;11.60;99.90;;;;;;5065604;28;20675;-85
2023/06/05 01:35:35;;;;;;;10.07;5.77;;;11.60;99.90;;;;;;5064055;28;20224;-84
2023/06/05 01:38:05;;;;;;;10.47;6.43;;;11.50;99.90;;;;;;5049941;28;20228;-83
2023/06/05 01:40:34;;;;;;;13.30;6.27;;;11.50;99.90;;;;;;5067524;28;20779;-83
2023/06/05 01:43:03;;;;;;;11.77;5.97;;;11.50;99.90;;;;;;5059743;28;20209;-87
2023/06/05 01:45:30;;;;;;;11.10;6.30;;;11.40;99.90;;;;;;5049554;28;20205;-84
2023/06/05 01:47:57;;;;;;;11.00;5.77;;;11.40;99.90;;;;;;5039899;28;20229;-82
2023/06/05 01:50:26;;;;;;;14.07;6.63;;;11.40;99.90;;;;;;5024435;28;20203;-82
2023/06/05 01:52:54;;;;;;;14.00;6.07;;;11.40;99.90;;;;;;5021537;28;20212;-85
2023/06/05 01:55:26;;;;;;;10.40;5.80;;;11.30;99.90;;;;;;5020388;28;20207;-82
2023/06/05 01:57:53;;;;;;;11.07;6.27;;;11.30;99.90;;;;;;5028072;28;20202;-84
2023/06/05 02:00:21;;;;;;;12.77;6.50;;;11.30;99.90;;;;;;5023604;28;20534;-82
2023/06/05 02:02:49;;;;;;;11.37;6.60;;;11.30;99.90;;;;;;5020974;28;20702;-84
2023/06/05 02:05:19;;;;;;;12.40;6.43;;;11.30;99.90;;;;;;5020664;28;20218;-85
2023/06/05 02:07:58;;;;;;;14.03;6.77;;;11.20;99.90;;;;;;5022366;28;20590;-83
2023/06/05 02:10:25;;;;;;;11.43;6.87;;;11.20;99.90;;;;;;5026395;28;20205;-82
2023/06/05 02:12:53;;;;;;;11.27;6.40;;;11.20;99.90;;;;;;5025399;28;20683;-83
2023/06/05 02:15:20;;;;;;;11.63;6.77;;;11.10;99.90;;;;;;5025993;28;20202;-83
2023/06/05 02:17:53;;;;;;;15.20;7.27;;;11.10;99.90;;;;;;5025062;28;20214;-83
2023/06/05 02:20:24;;;;;;;12.57;5.93;;;11.10;99.90;;;;;;5024715;28;20206;-84
2023/06/05 02:22:54;;;;;;;11.93;6.73;;;11.00;99.90;;;;;;5023585;28;20238;-83
2023/06/05 02:25:25;;;;;;;12.20;7.17;;;11.00;99.90;;;;;;5017918;28;20260;-86
2023/06/05 02:27:54;;;;;;;12.60;6.80;;;11.00;99.90;;;;;;5025476;28;21010;-83
2023/06/05 02:30:21;;;;;;;13.03;6.80;;;11.00;99.90;;;;;;5025102;28;20209;-85
2023/06/05 02:32:56;;;;;;;14.13;6.90;;;11.00;99.90;;;;;;5026196;28;20229;-83
2023/06/05 02:35:24;;;;;;;14.47;7.07;;;11.00;99.90;;;;;;5021404;28;20208;-84
2023/06/05 02:37:51;;;;;;;14.07;6.93;;;11.00;99.90;;;;;;5020412;28;20213;-85
2023/06/05 02:40:20;;;;;;;13.70;7.03;;;10.90;99.90;;;;;;5025673;28;20228;-84
2023/06/05 02:42:47;;;;;;;13.93;6.50;;;11.00;99.90;;;;;;5025965;28;20210;-84
2023/06/05 02:45:14;;;;;;;17.60;7.10;;;10.90;99.90;;;;;;5026536;28;20202;-86
2023/06/05 02:47:41;;;;;;;15.23;7.40;;;10.90;99.90;;;;;;5032248;28;20229;-84
2023/06/05 02:50:08;;;;;;;13.80;6.90;;;10.90;99.90;;;;;;5048451;28;20279;-84
2023/06/05 02:52:38;;;;;;;14.40;7.50;;;10.80;99.90;;;;;;5065769;28;20943;-83
2023/06/05 02:55:09;;;;;;;16.00;7.33;;;10.80;99.90;;;;;;5046295;28;20274;-83
2023/06/05 02:57:41;;;;;;;15.33;7.30;;;10.80;99.90;;;;;;5040280;28;20213;-83
2023/06/05 03:00:14;;;;;;;16.10;7.73;;;10.80;99.90;;;;;;5066961;28;20231;-85
2023/06/05 03:02:41;;;;;;;14.57;7.33;;;10.80;99.90;;;;;;5065033;28;20236;-83
2023/06/05 03:05:09;;;;;;;11.37;6.67;;;10.80;99.90;;;;;;5052549;28;20207;-83
2023/06/05 03:07:36;;;;;;;13.87;7.03;;;10.80;99.90;;;;;;5066895;28;20223;-84
2023/06/05 03:10:03;;;;;;;16.70;7.50;;;10.70;99.90;;;;;;5051433;28;20206;-84
2023/06/05 03:12:30;;;;;;;13.33;7.10;;;10.70;99.90;;;;;;5066503;28;20204;-84
2023/06/05 03:14:57;;;;;;;19.90;7.70;;;10.70;99.90;;;;;;5065409;28;20196;-85
2023/06/05 03:17:24;;;;;;;13.03;7.13;;;10.70;99.90;;;;;;5058137;28;20615;-85
2023/06/05 03:20:00;;;;;;;13.57;7.53;;;10.70;99.90;;;;;;5065332;28;20230;-86
2023/06/05 03:22:26;;;;;;;15.33;7.03;;;10.70;99.90;;;;;;5053358;28;20201;-83
2023/06/05 03:24:53;;;;;;;16.20;8.00;;;10.70;99.90;;;;;;5065534;28;20203;-85
2023/06/05 03:27:20;;;;;;;16.60;7.60;;;10.60;99.90;;;;;;5046548;28;20199;-84
2023/06/05 03:29:47;;;;;;;15.20;7.40;;;10.60;99.90;;;;;;5063348;28;20200;-82
2023/06/05 03:32:17;;;;;;;16.60;7.90;;;10.60;99.90;;;;;;5066189;28;20216;-82
2023/06/05 03:34:48;;;;;;;15.30;7.67;;;10.60;99.90;;;;;;5069509;28;20216;-83
2023/06/05 03:37:17;;;;;;;16.50;8.43;;;10.60;99.90;;;;;;5069328;28;20197;-82
2023/06/05 03:39:44;;;;;;;15.93;8.23;;;10.60;99.90;;;;;;5066671;28;20223;-84
2023/06/05 03:42:11;;;;;;;18.07;7.97;;;10.60;99.90;;;;;;5061511;28;20213;-83
2023/06/05 03:44:38;;;;;;;15.17;8.10;;;10.60;99.90;;;;;;5067571;28;20644;-85
2023/06/05 03:47:07;;;;;;;13.50;6.50;;;10.60;99.90;;;;;;5048540;28;20220;-84
2023/06/05 03:49:35;;;;;;;17.40;7.97;;;10.60;99.90;;;;;;5025827;28;20282;-84
2023/06/05 03:52:03;;;;;;;20.60;7.73;;;10.70;99.90;;;;;;5023569;28;20215;-83
2023/06/05 03:54:33;;;;;;;16.07;7.43;;;10.60;99.90;;;;;;5022737;28;20212;-85
2023/06/05 03:57:00;;;;;;;16.87;7.13;;;10.60;99.90;;;;;;5023204;28;20215;-87
2023/06/05 03:59:28;;;;;;;15.33;7.70;;;10.60;99.90;;;;;;5026428;28;20286;-84
2023/06/05 04:01:59;;;;;;;18.53;7.80;;;10.70;99.90;;;;;;5027165;28;20570;-84
2023/06/05 04:04:26;;;;;;;18.73;7.83;;;10.70;99.90;;;;;;5026355;28;20211;-84
2023/06/05 04:06:56;;;;;;;17.60;7.87;;;10.70;99.90;;;;;;5024394;28;20229;-84
2023/06/05 04:09:29;;;;;;;16.73;7.53;;;10.70;99.90;;;;;;5021080;28;20198;-84
2023/06/05 04:12:19;;;;;;;15.33;7.77;;;10.70;99.90;;;;;;5025081;28;20239;-85
2023/06/05 04:14:45;;;;;;;17.23;8.13;;;10.80;99.90;;;;;;5021275;28;20229;-85
2023/06/05 04:17:15;;;;;;;14.97;7.10;;;10.80;99.90;;;;;;5019776;28;20232;-84
2023/06/05 04:19:42;;;;;;;17.70;7.67;;;10.80;99.90;;;;;;5023880;28;20253;-84
2023/06/05 04:22:10;;;;;;;13.00;7.77;;;10.90;99.90;;;;;;5019410;28;20214;-84
2023/06/05 04:24:39;;;;;;;15.43;7.77;;;10.90;99.90;;;;;;5020484;28;20198;-84
2023/06/05 04:27:08;;;;;;;14.97;6.93;;;10.90;99.90;;;;;;5024860;28;20209;-83
2023/06/05 04:29:35;;;;;;;15.80;7.90;;;11.00;99.90;;;;;;5017210;28;20290;-85
2023/06/05 04:32:02;;;;;;;14.97;6.80;;;11.00;99.90;;;;;;5022171;28;20255;-85
2023/06/05 04:34:31;;;;;;;14.57;7.13;;;11.00;99.90;;;;;;5019358;28;20246;-83
2023/06/05 04:36:58;;;;;;;12.03;6.63;;;11.00;99.90;;;;;;5022582;28;20215;-83
2023/06/05 04:39:25;;;;;;;15.63;7.57;;;11.10;99.90;;;;;;5016301;28;20309;-84
2023/06/05 04:41:52;;;;;;;16.10;7.70;;;11.10;99.90;;;;;;5019048;28;20221;-82
2023/06/05 04:44:40;;;;;;;14.33;7.97;;;11.20;99.90;;;;;;5024988;28;20584;-82
2023/06/05 04:47:08;;;;;;;13.80;7.47;;;11.30;99.90;;;;;;5022424;28;20286;-84
2023/06/05 04:49:35;;;;;;;12.50;6.73;;;11.20;99.90;;;;;;5024587;28;20324;-85
2023/06/05 04:52:03;;;;;;;14.80;7.87;;;11.30;99.90;;;;;;5023796;28;20204;-85
2023/06/05 04:54:39;;;;;;;12.90;6.93;;;11.30;99.90;;;;;;5023945;28;20209;-84
2023/06/05 04:57:13;;;;;;;15.73;8.53;;;11.40;99.90;;;;;;5033132;28;20717;-83
2023/06/05 04:59:48;;;;;;;14.33;7.47;;;11.40;99.90;;;;;;5025495;28;20247;-84
2023/06/05 05:02:21;;;;;;;14.83;7.53;;;11.50;99.90;;;;;;5029379;28;20220;-83
2023/06/05 05:04:48;;;;;;;12.83;7.43;;;11.60;99.90;;;;;;5025372;28;20207;-85
2023/06/05 05:07:18;;;;;;;18.00;6.90;;;11.70;99.90;;;;;;5031391;28;20228;-87
2023/06/05 05:09:47;;;;;;;14.00;7.07;;;11.70;99.90;;;;;;5030432;28;20637;-87
2023/06/05 05:12:14;;;;;;;13.83;7.07;;;11.70;99.90;;;;;;5033110;28;20206;-84
2023/06/05 05:14:41;;;;;;;15.57;7.27;;;11.80;99.90;;;;;;5033154;28;20215;-83
2023/06/05 05:17:11;;;;;;;14.73;7.37;;;11.90;99.90;;;;;;5035560;28;20227;-85
2023/06/05 05:19:51;;;;;;;18.03;7.97;;;11.90;99.90;;;;;;5042889;28;20237;-90
2023/06/05 05:22:28;;;;;;;14.20;7.60;;;11.90;99.90;;;;;;5030955;28;20231;-87
2023/06/05 05:25:18;;;;;;;;;;;;;;;;;;;;;
2023/06/05 05:27:54;;;;;;;14.00;6.43;;;12.20;99.90;;;;;;5036767;28;20651;-87
2023/06/05 05:30:24;;;;;;;15.20;6.40;;;12.70;99.90;;;;;;5036986;28;20217;-85
2023/06/05 05:32:52;;;;;;;9.47;5.30;;;13.60;99.90;;;;;;5032103;28;20606;-86
2023/06/05 05:35:22;;;;;;;10.17;5.83;;;14.40;99.90;;;;;;5033899;28;20260;-85
2023/06/05 05:37:52;;;;;;;9.83;5.90;;;15.10;99.90;;;;;;5033280;28;20225;-87
2023/06/05 05:40:19;;;;;;;11.90;5.53;;;15.60;99.90;;;;;;5030018;28;20291;-85
2023/06/05 05:42:47;;;;;;;9.30;5.35;;;16.10;99.90;;;;;;5035270;28;20198;-84
2023/06/05 05:45:14;;;;;;;8.93;5.40;;;17.00;99.90;;;;;;5032784;28;20233;-85
2023/06/05 05:47:41;;;;;;;9.75;5.68;;;16.40;99.90;;;;;;5036247;28;20245;-86
2023/06/05 05:50:09;;;;;;;10.63;5.78;;;16.40;99.90;;;;;;5074367;28;20193;-87
2023/06/05 05:52:38;;;;;;;12.27;5.68;;;16.90;99.90;;;;;;5066791;28;20580;-86
2023/06/05 05:55:09;;;;;;;12.07;5.70;;;18.10;99.90;;;;;;5067653;28;20301;-86
2023/06/05 05:57:38;;;;;;;7.80;5.03;;;17.70;99.90;;;;;;5070254;28;20201;-86
2023/06/05 06:00:10;;;;;;;7.80;4.97;;;18.10;99.90;;;;;;5050447;28;20288;-85
2023/06/05 06:02:42;;;;;;;8.95;5.32;;;18.30;99.90;;;;;;5069764;28;20251;-84
2023/06/05 06:05:12;;;;;;;8.93;4.68;;;18.50;99.90;;;;;;5053584;28;20235;-85
2023/06/05 06:07:46;;;;;;;10.68;4.95;;;18.70;99.90;;;;;;5062340;28;21001;-87
2023/06/05 06:10:15;;;;;;;8.80;4.80;;;18.90;99.90;;;;;;5062040;28;20283;-84
2023/06/05 06:12:46;;;;;;;11.35;5.57;;;18.90;99.90;;;;;;5058041;28;20263;-85
2023/06/05 06:15:13;;;;;;;8.93;5.03;;;19.10;99.90;;;;;;5064307;28;20201;-85
2023/06/05 06:17:40;;;;;;;8.45;4.95;;;19.30;99.90;;;;;;5061297;28;20314;-86
2023/06/05 06:20:11;;;;;;;9.85;5.80;;;19.50;99.90;;;;;;5063679;28;20235;-85
2023/06/05 06:22:39;;;;;;;12.32;5.93;;;19.60;99.90;;;;;;5045751;28;20219;-85
2023/06/05 06:25:10;;;;;;;7.78;4.90;;;19.60;99.90;;;;;;5054305;28;20212;-85
2023/06/05 06:27:37;;;;;;;8.65;5.00;;;19.60;99.90;;;;;;5060271;28;20201;-85
2023/06/05 06:30:07;;;;;;;8.35;4.88;;;19.50;99.90;;;;;;5065560;28;20204;-88
2023/06/05 06:32:34;;;;;;;5.72;4.45;;;19.60;99.90;;;;;;5061109;28;20221;-84
2023/06/05 06:35:01;;;;;;;7.75;5.15;;;19.80;99.90;;;;;;5046698;28;20638;-84
2023/06/05 06:37:28;;;;;;;7.32;5.05;;;19.90;99.90;;;;;;5067547;28;20209;-84
2023/06/05 06:39:56;;;;;;;8.80;4.80;;;20.10;99.90;;;;;;5048947;28;20234;-84
2023/06/05 06:42:23;;;;;;;10.30;5.07;;;20.30;99.90;;;;;;5065334;28;20215;-85
2023/06/05 06:44:55;;;;;;;9.43;5.43;;;20.40;99.90;;;;;;5071626;28;20220;-87
2023/06/05 06:47:25;;;;;;;7.55;4.45;;;20.30;99.90;;;;;;5072511;28;20221;-86
2023/06/05 06:49:53;;;;;;;9.00;4.75;;;20.20;99.90;;;;;;5066190;28;20211;-86
2023/06/05 06:52:21;;;;;;;6.80;5.15;;;20.30;99.90;;;;;;5045334;28;20200;-85
2023/06/05 06:54:51;;;;;;;6.75;4.75;;;20.60;99.90;;;;;;5060479;28;20299;-83
2023/06/05 06:57:18;;;;;;;9.10;4.70;;;20.80;99.90;;;;;;5045077;28;20209;-85
2023/06/05 06:59:46;;;;;;;7.05;5.30;;;21.20;99.90;;;;;;5066864;28;20410;-83
2023/06/05 07:02:17;;;;;;;7.72;5.30;;;21.20;99.90;;;;;;5044637;28;20224;-83
2023/06/05 07:04:45;;;;;;;8.48;5.53;;;21.40;99.90;;;;;;5064697;28;20218;-84
2023/06/05 07:07:14;;;;;;;8.20;4.90;;;21.50;99.90;;;;;;5038957;28;20275;-83
2023/06/05 07:09:45;;;;;;;8.38;5.28;;;21.60;99.90;;;;;;5047411;28;20204;-84
2023/06/05 07:12:15;;;;;;;10.18;5.97;;;21.70;99.90;;;;;;5064001;28;20216;-84
2023/06/05 07:14:42;;;;;;;7.88;5.97;;;21.70;99.90;;;;;;5062562;28;20624;-83
2023/06/05 07:17:09;;;;;;;10.05;6.00;;;21.80;99.90;;;;;;5062664;28;20221;-84
2023/06/05 07:19:37;;;;;;;9.13;5.80;;;22.10;99.90;;;;;;5065700;28;20226;-84
2023/06/05 07:22:05;;;;;;;9.02;5.80;;;22.40;99.90;;;;;;5052818;28;20248;-84
2023/06/05 07:24:35;;;;;;;7.88;5.00;;;22.40;99.90;;;;;;5062075;28;20208;-85
2023/06/05 07:27:05;;;;;;;11.18;5.88;;;22.50;99.90;;;;;;5062874;28;20232;-84
2023/06/05 07:29:34;;;;;;;10.18;5.55;;;22.70;99.90;;;;;;5044731;28;20208;-87
2023/06/05 07:32:06;;;;;;;10.45;5.78;;;22.90;99.90;;;;;;5057189;28;20365;-85
2023/06/05 07:34:37;;;;;;;8.68;5.70;;;22.90;99.90;;;;;;5052921;28;20213;-84
2023/06/05 07:37:04;;;;;;;9.07;5.55;;;22.70;99.90;;;;;;5070244;28;20209;-86
2023/06/05 07:39:31;;;;;;;7.13;5.78;;;22.80;99.90;;;;;;5049212;28;20228;-84
2023/06/05 07:42:02;;;;;;;9.05;5.75;;;23.70;99.90;;;;;;5055342;28;20296;-85
2023/06/05 07:44:31;;;;;;;7.32;4.90;;;23.20;99.90;;;;;;5052979;28;20239;-86
2023/06/05 07:47:00;;;;;;;7.00;5.15;;;23.40;99.90;;;;;;5055392;28;20327;-85
2023/06/05 07:49:33;;;;;;;7.00;4.97;;;23.70;99.90;;;;;;5048677;28;20327;-85
2023/06/05 07:52:01;;;;;;;6.70;5.25;;;24.00;99.90;;;;;;5066529;28;20212;-85
2023/06/05 07:54:30;;;;;;;7.18;5.18;;;24.20;99.90;;;;;;5063643;28;20205;-86
2023/06/05 07:56:58;;;;;;;7.18;5.22;;;24.30;99.90;;;;;;5050066;28;20244;-86
2023/06/05 07:59:27;;;;;;;7.85;5.53;;;24.30;99.90;;;;;;5048055;28;20300;-85
2023/06/05 08:02:05;;;;;;;7.25;5.40;;;24.10;99.90;;;;;;5062014;28;20220;-85
2023/06/05 08:04:35;;;;;;;6.57;4.88;;;23.90;99.90;;;;;;5048176;28;20279;-86
2023/06/05 08:07:02;;;;;;;7.75;5.53;;;23.70;99.90;;;;;;5070173;28;20221;-85
2023/06/05 08:09:29;;;;;;;7.38;4.70;;;23.60;99.90;;;;;;5045708;28;20246;-85
2023/06/05 08:11:56;;;;;;;7.95;5.80;;;23.40;99.90;;;;;;5040799;28;20208;-87
2023/06/05 08:14:23;;;;;;;8.45;4.90;;;23.30;99.90;;;;;;5068777;28;20240;-86
2023/06/05 08:16:51;;;;;;;8.20;5.45;;;23.40;99.90;;;;;;5052246;28;20216;-87
2023/06/05 08:19:18;;;;;;;7.13;5.45;;;23.70;99.90;;;;;;5055057;28;20246;-85
2023/06/05 08:21:45;;;;;;;7.63;5.20;;;23.80;99.90;;;;;;5056869;28;20197;-87
2023/06/05 08:24:13;;;;;;;6.97;4.68;;;23.90;99.90;;;;;;5058441;28;20217;-87
2023/06/05 08:26:42;;;;;;;8.07;5.75;;;23.80;99.90;;;;;;5079095;28;21058;-86
2023/06/05 08:29:12;;;;;;;8.05;5.30;;;23.70;99.90;;;;;;5053401;28;20200;-87
2023/06/05 08:31:39;;;;;;;7.13;5.70;;;23.70;99.90;;;;;;5071865;28;20230;-88
2023/06/05 08:34:07;;;;;;;9.25;5.78;;;23.90;99.90;;;;;;5040076;28;20205;-88
2023/06/05 08:36:37;;;;;;;10.63;5.55;;;23.70;99.90;;;;;;5059039;28;20236;-87
2023/06/05 08:39:04;;;;;;;7.18;5.60;;;23.90;99.90;;;;;;5055785;28;20237;-84
2023/06/05 08:41:32;;;;;;;7.97;5.68;;;23.90;99.90;;;;;;5050273;28;20750;-87
2023/06/05 08:44:00;;;;;;;9.40;5.50;;;24.00;99.90;;;;;;5050945;28;20303;-84
2023/06/05 08:46:30;;;;;;;7.05;5.40;;;24.10;99.90;;;;;;5065989;28;20323;-86
2023/06/05 08:48:58;;;;;;;7.72;5.38;;;24.10;99.90;;;;;;5069314;28;20235;-87
2023/06/05 08:51:25;;;;;;;6.97;4.82;;;24.10;99.90;;;;;;5051445;28;20200;-86
2023/06/05 08:54:12;;;;;;;8.10;5.72;;;24.10;99.90;;;;;;5069518;28;20250;-86
2023/06/05 08:56:40;;;;;;;8.10;5.55;;;24.10;99.90;;;;;;5076569;28;20673;-86
2023/06/05 08:59:09;;;;;;;6.15;4.97;;;24.30;99.90;;;;;;5075608;28;20899;-85
2023/06/05 09:01:37;;;;;;;7.03;5.57;;;24.20;99.90;;;;;;5081636;28;20217;-87
2023/06/05 09:04:08;;;;;;;7.30;5.40;;;24.00;99.90;;;;;;5072535;28;20211;-87
2023/06/05 09:06:45;;;;;;;9.35;6.25;;;23.90;99.90;;;;;;5075788;28;20212;-86
2023/06/05 09:09:14;;;;;;;7.65;5.25;;;24.00;99.90;;;;;;5063334;28;20204;-86
2023/06/05 09:11:44;;;;;;;8.43;5.50;;;24.00;99.90;;;;;;5061539;28;20287;-84
2023/06/05 09:14:12;;;;;;;9.68;6.15;;;24.10;99.90;;;;;;5047385;28;20259;-83
2023/06/05 09:16:43;;;;;;;7.35;5.35;;;24.10;99.90;;;;;;5065184;28;20278;-83
2023/06/05 09:19:11;;;;;;;9.10;5.53;;;24.00;99.90;;;;;;5065156;28;20196;-83
2023/06/05 09:21:39;;;;;;;7.38;5.50;;;24.10;99.90;;;;;;5068045;28;21026;-82
2023/06/05 09:24:18;;;;;;;7.82;5.15;;;24.00;99.90;;;;;;5047906;28;20239;-83
2023/06/05 09:26:50;;;;;;;6.50;5.38;;;23.90;99.90;;;;;;5047934;28;20226;-85
2023/06/05 09:29:28;;;;;;;8.55;5.18;;;24.00;99.90;;;;;;5046707;28;20197;-84
2023/06/05 09:31:59;;;;;;;9.27;5.28;;;24.10;99.90;;;;;;5052049;28;20266;-85
2023/06/05 09:34:36;;;;;;;6.35;5.15;;;24.10;99.90;;;;;;5070215;28;20201;-85
2023/06/05 09:37:11;;;;;;;8.95;5.55;;;24.00;99.90;;;;;;5060482;28;20200;-84
2023/06/05 09:39:44;;;;;;;10.98;5.63;;;23.90;99.90;;;;;;5071781;28;20192;-84
2023/06/05 09:42:11;;;;;;;8.35;4.93;;;23.80;99.90;;;;;;5046446;28;20217;-84
2023/06/05 09:44:39;;;;;;;8.07;4.95;;;23.80;99.90;;;;;;5073957;28;20258;-84
2023/06/05 09:47:09;;;;;;;9.45;5.47;;;23.70;99.90;;;;;;5070685;28;20220;-84
2023/06/05 09:49:40;;;;;;;8.00;5.22;;;23.90;99.90;;;;;;5069940;28;20232;-85
2023/06/05 09:52:11;;;;;;;7.03;5.38;;;23.80;99.90;;;;;;5069306;28;20201;-85
2023/06/05 09:54:44;;;;;;;7.63;5.00;;;23.80;99.90;;;;;;5072344;28;20212;-84
2023/06/05 09:57:15;;;;;;;11.10;5.20;;;23.80;99.90;;;;;;5078040;28;20287;-85
2023/06/05 09:59:51;;;;;;;8.75;5.32;;;23.90;99.90;;;;;;5061563;28;20208;-85
2023/06/05 10:02:21;;;;;;;8.68;5.28;;;23.90;99.90;;;;;;5054334;28;20251;-83
2023/06/05 10:05:17;;;;;;;6.72;5.22;;;23.90;99.90;;;;;;5066001;28;20195;-82
2023/06/05 10:07:47;;;;;;;6.32;4.93;;;23.90;99.90;;;;;;5061720;28;20311;-83
2023/06/05 10:10:15;;;;;;;7.93;5.20;;;23.90;99.90;;;;;;5066841;28;20649;-82
2023/06/05 10:12:43;;;;;;;8.95;4.40;;;24.10;99.90;;;;;;5046387;28;20274;-82
2023/06/05 10:15:10;;;;;;;8.73;4.90;;;24.10;99.90;;;;;;5065107;28;20209;-81
2023/06/05 10:17:41;;;;;;;7.80;4.90;;;24.10;99.90;;;;;;5067003;28;20216;-86
2023/06/05 10:20:12;;;;;;;6.70;4.78;;;24.00;99.90;;;;;;5062443;28;20912;-83
2023/06/05 10:22:42;;;;;;;8.77;4.90;;;24.00;99.90;;;;;;5065890;28;20241;-83
2023/06/05 10:25:12;;;;;;;8.13;5.30;;;24.10;99.90;;;;;;5049374;28;20220;-84
2023/06/05 10:27:45;;;;;;;6.30;4.68;;;24.20;99.90;;;;;;5063643;28;20200;-83
2023/06/05 10:30:24;;;;;;;8.25;5.13;;;24.30;99.90;;;;;;5066681;28;20215;-82
2023/06/05 10:33:19;;;;;;;7.13;5.07;;;24.30;99.90;;;;;;5062385;28;20220;-83
2023/06/05 10:36:01;;;;;;;7.63;4.45;;;24.50;99.90;;;;;;5060460;28;20193;-83
2023/06/05 10:38:29;;;;;;;7.45;4.38;;;24.60;99.90;;;;;;5060219;28;20259;-84
2023/06/05 10:41:01;;;;;;;7.18;4.47;;;24.60;99.90;;;;;;5065212;28;20252;-85
2023/06/05 10:43:35;;;;;;;8.52;4.80;;;24.60;99.90;;;;;;5059458;28;20235;-84
2023/06/05 10:46:22;;;;;;;6.95;4.25;;;24.50;99.90;;;;;;5048383;28;20220;-84
2023/06/05 10:49:19;;;;;;;6.35;4.30;;;24.50;99.90;;;;;;5058418;28;20655;-82
2023/06/05 10:51:48;;;;;;;6.32;4.18;;;24.40;99.90;;;;;;5060297;28;20203;-84
2023/06/05 10:54:24;;;;;;;6.22;4.38;;;24.40;99.90;;;;;;5062676;28;20205;-83
2023/06/05 10:56:52;;;;;;;5.72;3.90;;;24.40;99.90;;;;;;5044373;28;20200;-81
2023/06/05 10:59:27;;;;;;;7.32;4.45;;;24.30;99.90;;;;;;5064645;28;20286;-82
2023/06/05 11:02:19;;;;;;;7.60;4.60;;;24.30;99.90;;;;;;5062366;28;20223;-82
2023/06/05 11:04:49;;;;;;;6.75;4.43;;;24.20;99.90;;;;;;5053511;28;20819;-83
2023/06/05 11:07:22;;;;;;;7.70;5.07;;;24.20;99.90;;;;;;5065868;28;20216;-82
2023/06/05 11:10:01;;;;;;;7.88;4.25;;;24.30;99.90;;;;;;5060528;28;20256;-84
2023/06/05 11:12:34;;;;;;;7.95;4.47;;;24.20;99.90;;;;;;5062301;28;20231;-84
2023/06/05 11:15:21;;;;;;;6.80;4.25;;;24.20;99.90;;;;;;5064337;28;20624;-84
2023/06/05 11:17:48;;;;;;;9.15;5.22;;;24.30;99.90;;;;;;5047065;28;20641;-83
2023/06/05 11:20:24;;;;;;;6.82;4.45;;;24.40;99.90;;;;;;5065316;28;20705;-84
2023/06/05 11:22:55;;;;;;;6.05;4.43;;;24.50;99.90;;;;;;5064483;28;20200;-82
2023/06/05 11:25:26;;;;;;;10.18;4.32;;;24.60;99.90;;;;;;5064254;28;20739;-82
2023/06/05 11:28:01;;;;;;;7.28;4.65;;;24.80;99.90;;;;;;5047039;28;20284;-85
2023/06/05 11:30:33;;;;;;;8.52;4.70;;;24.90;99.90;;;;;;5065753;28;20275;-83
2023/06/05 11:33:20;;;;;;;8.02;4.20;;;24.90;99.90;;;;;;5042852;28;20208;-84
2023/06/05 11:35:50;;;;;;;6.80;4.47;;;25.00;99.90;;;;;;5061864;28;20648;-84
2023/06/05 11:38:19;;;;;;;5.95;4.22;;;24.90;99.90;;;;;;5060020;28;20740;-85
2023/06/05 11:40:50;;;;;;;6.90;4.07;;;24.90;99.90;;;;;;5061481;28;20254;-84
2023/06/05 11:43:17;;;;;;;5.60;4.35;;;25.00;99.90;;;;;;5062842;28;20235;-84
2023/06/05 11:45:54;;;;;;;6.00;3.78;;;25.10;99.90;;;;;;5063902;28;20208;-83
2023/06/05 11:48:22;;;;;;;6.32;4.32;;;25.30;99.90;;;;;;5062252;28;20239;-84
2023/06/05 11:50:55;;;;;;;7.72;4.18;;;25.50;99.90;;;;;;5045926;28;20211;-83
2023/06/05 11:53:23;;;;;;;9.55;5.47;;;25.50;99.90;;;;;;5062982;28;20200;-84
2023/06/05 11:58:28;;;;;;;8.77;4.43;;;25.80;99.90;;;;;;5065284;28;20200;-83
2023/06/05 12:01:23;;;;;;;6.13;4.32;;;25.90;99.90;;;;;;5064128;28;20220;-84
2023/06/05 12:04:05;;;;;;;7.57;4.57;;;25.80;99.70;;;;;;5059478;28;20205;-82
2023/06/05 12:06:49;;;;;;;6.43;4.43;;;25.50;99.30;;;;;;5073119;28;20316;-84
2023/06/05 12:09:18;;;;;;;6.20;3.80;;;25.50;99.90;;;;;;5045242;28;20201;-82
2023/06/05 12:11:46;;;;;;;4.93;3.88;;;25.60;99.40;;;;;;5056078;28;20207;-84
2023/06/05 12:14:32;;;;;;;7.25;4.15;;;25.70;99.10;;;;;;5073813;28;20196;-82
2023/06/05 12:17:09;;;;;;;6.18;4.30;;;25.70;99.00;;;;;;5071134;28;20212;-84
2023/06/05 12:19:40;;;;;;;7.43;4.07;;;25.60;99.60;;;;;;5074309;28;20200;-82
2023/06/05 12:22:09;;;;;;;7.75;4.57;;;25.70;99.70;;;;;;5066953;28;20228;-83
2023/06/05 12:24:37;;;;;;;5.47;3.83;;;25.70;99.30;;;;;;5049930;28;20997;-82
2023/06/05 12:27:07;;;;;;;6.93;4.45;;;25.80;99.30;;;;;;5066168;28;20737;-83
2023/06/05 12:29:38;;;;;;;5.03;3.75;;;26.00;98.80;;;;;;5049619;28;20203;-84
2023/06/05 12:32:24;;;;;;;6.35;4.50;;;26.00;98.90;;;;;;5063943;28;20230;-83
2023/06/05 12:34:53;;;;;;;5.40;3.90;;;26.10;98.10;;;;;;5065823;28;20204;-83
2023/06/05 12:37:29;;;;;;;5.05;3.83;;;26.00;98.00;;;;;;5049896;28;20203;-84
2023/06/05 12:40:00;;;;;;;5.85;4.10;;;26.00;98.40;;;;;;5051152;28;20212;-85
2023/06/05 12:42:30;;;;;;;7.53;4.20;;;26.10;97.80;;;;;;5051358;28;20227;-85
2023/06/05 12:45:25;;;;;;;6.45;3.70;;;26.20;97.90;;;;;;5051993;28;20303;-88
2023/06/05 12:47:51;;;;;;;5.65;3.17;;;26.30;98.10;;;;;;5065142;28;20228;-84
2023/06/05 12:50:25;;;;;;;5.32;3.38;;;26.40;97.90;;;;;;5066177;28;20299;-85
2023/06/05 12:52:53;;;;;;;5.38;3.65;;;26.40;97.40;;;;;;5066291;28;20296;-84
2023/06/05 12:55:20;;;;;;;6.80;3.90;;;26.30;97.10;;;;;;5051812;28;20201;-87
2023/06/05 12:57:50;;;;;;;6.57;4.15;;;26.40;97.10;;;;;;5051497;28;20561;-87
2023/06/05 13:00:24;;;;;;;5.65;3.65;;;26.40;97.00;;;;;;5051795;28;20212;-85
2023/06/05 13:02:56;;;;;;;5.85;3.40;;;26.50;96.80;;;;;;5068775;28;20268;-84